sensor_id;sensor_type;location;lat;lon;timestamp;P1;durP1;ratioP1;P2;durP2;ratioP2
17363;SDS011;8799;43.594;13.526;2024-02-16T00:00:18;9.27;;;4.60;;
17363;SDS011;8799;43.594;13.526;2024-02-16T00:02:46;8.13;;;4.60;;
17363;SDS011;8799;43.594;13.526;2024-02-16T00:05:14;9.50;;;5.13;;
17363;SDS011;8799;43.594;13.526;2024-02-16T00:07:41;8.70;;;4.97;;
17363;SDS011;8799;43.594;13.526;2024-02-16T00:10:09;6.57;;;4.27;;
17363;SDS011;8799;43.594;13.526;2024-02-16T00:12:41;9.53;;;4.07;;
17363;SDS011;8799;43.594;13.526;2024-02-16T00:15:09;7.63;;;4.17;;
17363;SDS011;8799;43.594;13.526;2024-02-16T00:17:39;9.07;;;4.50;;
17363;SDS011;8799;43.594;13.526;2024-02-16T00:20:07;8.57;;;4.63;;
17363;SDS011;8799;43.594;13.526;2024-02-16T00:22:37;8.73;;;4.90;;
17363;SDS011;8799;43.594;13.526;2024-02-16T00:25:05;7.97;;;4.53;;
17363;SDS011;8799;43.594;13.526;2024-02-16T00:27:33;9.50;;;5.10;;
17363;SDS011;8799;43.594;13.526;2024-02-16T00:30:01;8.20;;;4.73;;
17363;SDS011;8799;43.594;13.526;2024-02-16T00:32:29;9.47;;;4.87;;
17363;SDS011;8799;43.594;13.526;2024-02-16T00:34:58;7.53;;;4.90;;
17363;SDS011;8799;43.594;13.526;2024-02-16T00:37:26;7.63;;;4.57;;
17363;SDS011;8799;43.594;13.526;2024-02-16T00:39:54;7.47;;;4.20;;
17363;SDS011;8799;43.594;13.526;2024-02-16T00:42:21;10.43;;;4.80;;
17363;SDS011;8799;43.594;13.526;2024-02-16T00:44:51;7.60;;;4.80;;
17363;SDS011;8799;43.594;13.526;2024-02-16T00:47:19;6.67;;;4.07;;
17363;SDS011;8799;43.594;13.526;2024-02-16T00:49:48;8.13;;;4.50;;
17363;SDS011;8799;43.594;13.526;2024-02-16T00:52:18;6.73;;;4.17;;
17363;SDS011;8799;43.594;13.526;2024-02-16T00:54:46;8.30;;;4.53;;
17363;SDS011;8799;43.594;13.526;2024-02-16T00:57:21;8.47;;;5.10;;
17363;SDS011;8799;43.594;13.526;2024-02-16T00:59:49;7.33;;;4.43;;
17363;SDS011;8799;43.594;13.526;2024-02-16T01:02:17;7.10;;;4.50;;
17363;SDS011;8799;43.594;13.526;2024-02-16T01:04:46;8.80;;;4.67;;
17363;SDS011;8799;43.594;13.526;2024-02-16T01:07:15;6.93;;;4.30;;
17363;SDS011;8799;43.594;13.526;2024-02-16T01:09:44;11.03;;;4.40;;
17363;SDS011;8799;43.594;13.526;2024-02-16T01:12:12;10.40;;;4.63;;
17363;SDS011;8799;43.594;13.526;2024-02-16T01:14:40;6.30;;;4.03;;
17363;SDS011;8799;43.594;13.526;2024-02-16T01:17:08;8.07;;;4.40;;
17363;SDS011;8799;43.594;13.526;2024-02-16T01:19:35;8.17;;;4.23;;
17363;SDS011;8799;43.594;13.526;2024-02-16T01:22:05;7.70;;;4.93;;
17363;SDS011;8799;43.594;13.526;2024-02-16T01:24:33;8.93;;;3.97;;
17363;SDS011;8799;43.594;13.526;2024-02-16T01:27:08;8.17;;;4.60;;
17363;SDS011;8799;43.594;13.526;2024-02-16T01:29:36;9.97;;;4.77;;
17363;SDS011;8799;43.594;13.526;2024-02-16T01:32:04;10.00;;;4.60;;
17363;SDS011;8799;43.594;13.526;2024-02-16T01:34:31;7.70;;;3.90;;
17363;SDS011;8799;43.594;13.526;2024-02-16T01:36:59;7.00;;;4.20;;
17363;SDS011;8799;43.594;13.526;2024-02-16T01:39:27;7.13;;;3.93;;
17363;SDS011;8799;43.594;13.526;2024-02-16T01:41:55;7.53;;;3.70;;
17363;SDS011;8799;43.594;13.526;2024-02-16T01:44:25;7.17;;;4.20;;
17363;SDS011;8799;43.594;13.526;2024-02-16T01:46:55;10.53;;;4.23;;
17363;SDS011;8799;43.594;13.526;2024-02-16T01:49:24;6.83;;;4.27;;
17363;SDS011;8799;43.594;13.526;2024-02-16T01:51:52;7.10;;;3.53;;
17363;SDS011;8799;43.594;13.526;2024-02-16T01:54:20;7.30;;;4.03;;
17363;SDS011;8799;43.594;13.526;2024-02-16T01:56:47;7.33;;;3.80;;
17363;SDS011;8799;43.594;13.526;2024-02-16T01:59:15;8.70;;;4.53;;
17363;SDS011;8799;43.594;13.526;2024-02-16T02:01:46;8.30;;;3.90;;
17363;SDS011;8799;43.594;13.526;2024-02-16T02:04:13;8.53;;;4.13;;
17363;SDS011;8799;43.594;13.526;2024-02-16T02:06:42;8.37;;;4.23;;
17363;SDS011;8799;43.594;13.526;2024-02-16T02:09:10;8.93;;;5.00;;
17363;SDS011;8799;43.594;13.526;2024-02-16T02:11:38;7.77;;;4.40;;
17363;SDS011;8799;43.594;13.526;2024-02-16T02:14:09;9.17;;;4.17;;
17363;SDS011;8799;43.594;13.526;2024-02-16T02:16:36;8.07;;;4.47;;
17363;SDS011;8799;43.594;13.526;2024-02-16T02:19:05;7.33;;;4.27;;
17363;SDS011;8799;43.594;13.526;2024-02-16T02:21:33;6.17;;;3.77;;
17363;SDS011;8799;43.594;13.526;2024-02-16T02:24:03;7.17;;;4.07;;
17363;SDS011;8799;43.594;13.526;2024-02-16T02:26:31;6.47;;;4.13;;
17363;SDS011;8799;43.594;13.526;2024-02-16T02:28:59;8.50;;;4.30;;
17363;SDS011;8799;43.594;13.526;2024-02-16T02:31:27;7.27;;;4.50;;
17363;SDS011;8799;43.594;13.526;2024-02-16T02:33:55;8.97;;;4.27;;
17363;SDS011;8799;43.594;13.526;2024-02-16T02:36:22;7.13;;;4.60;;
17363;SDS011;8799;43.594;13.526;2024-02-16T02:38:50;6.67;;;4.57;;
17363;SDS011;8799;43.594;13.526;2024-02-16T02:41:22;8.13;;;4.70;;
17363;SDS011;8799;43.594;13.526;2024-02-16T02:43:50;6.60;;;4.00;;
17363;SDS011;8799;43.594;13.526;2024-02-16T02:46:19;7.33;;;4.13;;
17363;SDS011;8799;43.594;13.526;2024-02-16T02:48:47;8.20;;;4.30;;
17363;SDS011;8799;43.594;13.526;2024-02-16T02:51:15;7.10;;;4.07;;
17363;SDS011;8799;43.594;13.526;2024-02-16T02:53:42;11.50;;;4.60;;
17363;SDS011;8799;43.594;13.526;2024-02-16T02:56:10;10.83;;;4.43;;
17363;SDS011;8799;43.594;13.526;2024-02-16T02:58:40;8.80;;;4.67;;
17363;SDS011;8799;43.594;13.526;2024-02-16T03:01:08;7.53;;;3.90;;
17363;SDS011;8799;43.594;13.526;2024-02-16T03:03:35;7.93;;;4.20;;
17363;SDS011;8799;43.594;13.526;2024-02-16T03:06:03;7.93;;;4.27;;
17363;SDS011;8799;43.594;13.526;2024-02-16T03:08:31;6.97;;;4.23;;
17363;SDS011;8799;43.594;13.526;2024-02-16T03:10:58;7.20;;;4.40;;
17363;SDS011;8799;43.594;13.526;2024-02-16T03:13:26;9.00;;;4.33;;
17363;SDS011;8799;43.594;13.526;2024-02-16T03:15:55;9.97;;;4.60;;
17363;SDS011;8799;43.594;13.526;2024-02-16T03:18:23;7.67;;;4.07;;
17363;SDS011;8799;43.594;13.526;2024-02-16T03:20:51;8.47;;;3.93;;
17363;SDS011;8799;43.594;13.526;2024-02-16T03:23:19;7.80;;;4.37;;
17363;SDS011;8799;43.594;13.526;2024-02-16T03:25:47;7.83;;;4.30;;
17363;SDS011;8799;43.594;13.526;2024-02-16T03:28:14;7.73;;;4.30;;
17363;SDS011;8799;43.594;13.526;2024-02-16T03:30:43;8.00;;;4.30;;
17363;SDS011;8799;43.594;13.526;2024-02-16T03:33:13;6.83;;;4.30;;
17363;SDS011;8799;43.594;13.526;2024-02-16T03:35:41;8.33;;;4.23;;
17363;SDS011;8799;43.594;13.526;2024-02-16T03:38:09;7.73;;;4.37;;
17363;SDS011;8799;43.594;13.526;2024-02-16T03:40:37;9.73;;;4.53;;
17363;SDS011;8799;43.594;13.526;2024-02-16T03:43:06;7.73;;;4.00;;
17363;SDS011;8799;43.594;13.526;2024-02-16T03:45:33;8.87;;;4.20;;
17363;SDS011;8799;43.594;13.526;2024-02-16T03:48:01;7.73;;;3.93;;
17363;SDS011;8799;43.594;13.526;2024-02-16T03:50:30;8.07;;;4.30;;
17363;SDS011;8799;43.594;13.526;2024-02-16T03:52:58;7.67;;;4.53;;
17363;SDS011;8799;43.594;13.526;2024-02-16T03:55:26;6.50;;;4.10;;
17363;SDS011;8799;43.594;13.526;2024-02-16T03:57:53;7.23;;;4.07;;
17363;SDS011;8799;43.594;13.526;2024-02-16T04:00:21;5.27;;;3.30;;
17363;SDS011;8799;43.594;13.526;2024-02-16T04:02:48;7.00;;;4.40;;
17363;SDS011;8799;43.594;13.526;2024-02-16T04:05:16;7.17;;;3.97;;
17363;SDS011;8799;43.594;13.526;2024-02-16T04:07:45;6.30;;;3.50;;
17363;SDS011;8799;43.594;13.526;2024-02-16T04:10:16;6.50;;;3.57;;
17363;SDS011;8799;43.594;13.526;2024-02-16T04:12:43;6.27;;;3.73;;
17363;SDS011;8799;43.594;13.526;2024-02-16T04:15:12;5.83;;;4.07;;
17363;SDS011;8799;43.594;13.526;2024-02-16T04:17:40;9.23;;;3.93;;
17363;SDS011;8799;43.594;13.526;2024-02-16T04:20:08;7.43;;;3.73;;
17363;SDS011;8799;43.594;13.526;2024-02-16T04:22:36;6.60;;;3.67;;
17363;SDS011;8799;43.594;13.526;2024-02-16T04:25:06;7.07;;;3.67;;
17363;SDS011;8799;43.594;13.526;2024-02-16T04:27:34;8.40;;;4.20;;
17363;SDS011;8799;43.594;13.526;2024-02-16T04:30:02;7.50;;;4.10;;
17363;SDS011;8799;43.594;13.526;2024-02-16T04:32:31;6.73;;;3.50;;
17363;SDS011;8799;43.594;13.526;2024-02-16T04:34:59;8.93;;;4.50;;
17363;SDS011;8799;43.594;13.526;2024-02-16T04:37:27;9.47;;;4.00;;
17363;SDS011;8799;43.594;13.526;2024-02-16T04:39:55;7.07;;;3.83;;
17363;SDS011;8799;43.594;13.526;2024-02-16T04:42:24;10.77;;;4.10;;
17363;SDS011;8799;43.594;13.526;2024-02-16T04:44:52;7.70;;;4.03;;
17363;SDS011;8799;43.594;13.526;2024-02-16T04:47:20;7.50;;;3.57;;
17363;SDS011;8799;43.594;13.526;2024-02-16T04:49:47;6.50;;;3.10;;
17363;SDS011;8799;43.594;13.526;2024-02-16T04:52:15;6.07;;;3.47;;
17363;SDS011;8799;43.594;13.526;2024-02-16T04:54:43;6.87;;;3.60;;
17363;SDS011;8799;43.594;13.526;2024-02-16T04:57:10;8.20;;;3.80;;
17363;SDS011;8799;43.594;13.526;2024-02-16T04:59:40;8.40;;;3.50;;
17363;SDS011;8799;43.594;13.526;2024-02-16T05:02:08;8.13;;;3.50;;
17363;SDS011;8799;43.594;13.526;2024-02-16T05:04:36;5.83;;;3.60;;
17363;SDS011;8799;43.594;13.526;2024-02-16T05:07:05;5.57;;;3.33;;
17363;SDS011;8799;43.594;13.526;2024-02-16T05:09:32;8.37;;;4.27;;
17363;SDS011;8799;43.594;13.526;2024-02-16T05:12:00;6.63;;;3.67;;
17363;SDS011;8799;43.594;13.526;2024-02-16T05:14:28;8.30;;;4.13;;
17363;SDS011;8799;43.594;13.526;2024-02-16T05:16:58;6.23;;;3.17;;
17363;SDS011;8799;43.594;13.526;2024-02-16T05:19:26;6.23;;;3.70;;
17363;SDS011;8799;43.594;13.526;2024-02-16T05:21:54;6.20;;;3.50;;
17363;SDS011;8799;43.594;13.526;2024-02-16T05:24:22;6.07;;;3.60;;
17363;SDS011;8799;43.594;13.526;2024-02-16T05:26:50;5.50;;;3.33;;
17363;SDS011;8799;43.594;13.526;2024-02-16T05:29:18;6.67;;;3.40;;
17363;SDS011;8799;43.594;13.526;2024-02-16T05:31:45;7.17;;;3.33;;
17363;SDS011;8799;43.594;13.526;2024-02-16T05:34:22;5.50;;;3.33;;
17363;SDS011;8799;43.594;13.526;2024-02-16T05:36:50;5.03;;;3.07;;
17363;SDS011;8799;43.594;13.526;2024-02-16T05:39:18;5.70;;;3.33;;
17363;SDS011;8799;43.594;13.526;2024-02-16T05:41:57;7.30;;;3.70;;
17363;SDS011;8799;43.594;13.526;2024-02-16T05:44:24;6.77;;;3.47;;
17363;SDS011;8799;43.594;13.526;2024-02-16T05:46:52;5.83;;;2.97;;
17363;SDS011;8799;43.594;13.526;2024-02-16T05:49:20;5.27;;;3.23;;
17363;SDS011;8799;43.594;13.526;2024-02-16T05:51:51;5.53;;;3.17;;
17363;SDS011;8799;43.594;13.526;2024-02-16T05:54:37;6.33;;;2.63;;
17363;SDS011;8799;43.594;13.526;2024-02-16T05:57:05;6.73;;;3.50;;
17363;SDS011;8799;43.594;13.526;2024-02-16T05:59:34;5.23;;;3.37;;
17363;SDS011;8799;43.594;13.526;2024-02-16T06:02:02;5.53;;;3.40;;
17363;SDS011;8799;43.594;13.526;2024-02-16T06:04:32;5.23;;;3.60;;
17363;SDS011;8799;43.594;13.526;2024-02-16T06:07:02;6.63;;;3.00;;
17363;SDS011;8799;43.594;13.526;2024-02-16T06:09:30;6.27;;;3.23;;
17363;SDS011;8799;43.594;13.526;2024-02-16T06:12:01;5.73;;;3.50;;
17363;SDS011;8799;43.594;13.526;2024-02-16T06:14:32;6.13;;;3.20;;
17363;SDS011;8799;43.594;13.526;2024-02-16T06:16:59;6.00;;;3.50;;
17363;SDS011;8799;43.594;13.526;2024-02-16T06:19:27;6.87;;;3.27;;
17363;SDS011;8799;43.594;13.526;2024-02-16T06:21:55;8.30;;;4.07;;
17363;SDS011;8799;43.594;13.526;2024-02-16T06:24:24;4.83;;;2.60;;
17363;SDS011;8799;43.594;13.526;2024-02-16T06:26:52;4.83;;;3.20;;
17363;SDS011;8799;43.594;13.526;2024-02-16T06:29:20;5.63;;;3.17;;
17363;SDS011;8799;43.594;13.526;2024-02-16T06:31:47;6.60;;;3.17;;
17363;SDS011;8799;43.594;13.526;2024-02-16T06:34:15;5.30;;;3.20;;
17363;SDS011;8799;43.594;13.526;2024-02-16T06:36:43;7.73;;;3.37;;
17363;SDS011;8799;43.594;13.526;2024-02-16T06:39:10;6.20;;;2.83;;
17363;SDS011;8799;43.594;13.526;2024-02-16T06:41:43;4.77;;;3.10;;
17363;SDS011;8799;43.594;13.526;2024-02-16T06:44:10;9.27;;;3.30;;
17363;SDS011;8799;43.594;13.526;2024-02-16T06:46:38;5.33;;;3.10;;
17363;SDS011;8799;43.594;13.526;2024-02-16T06:49:06;4.90;;;2.87;;
17363;SDS011;8799;43.594;13.526;2024-02-16T06:51:35;5.20;;;2.73;;
17363;SDS011;8799;43.594;13.526;2024-02-16T06:54:02;5.03;;;3.00;;
17363;SDS011;8799;43.594;13.526;2024-02-16T06:56:31;7.10;;;2.77;;
17363;SDS011;8799;43.594;13.526;2024-02-16T06:59:00;5.30;;;3.03;;
17363;SDS011;8799;43.594;13.526;2024-02-16T07:01:28;5.17;;;3.20;;
17363;SDS011;8799;43.594;13.526;2024-02-16T07:03:56;6.10;;;3.37;;
17363;SDS011;8799;43.594;13.526;2024-02-16T07:06:24;5.10;;;2.77;;
17363;SDS011;8799;43.594;13.526;2024-02-16T07:08:52;5.57;;;3.10;;
17363;SDS011;8799;43.594;13.526;2024-02-16T07:11:20;5.67;;;3.17;;
17363;SDS011;8799;43.594;13.526;2024-02-16T07:13:48;5.90;;;3.03;;
17363;SDS011;8799;43.594;13.526;2024-02-16T07:16:20;4.87;;;2.97;;
17363;SDS011;8799;43.594;13.526;2024-02-16T07:18:47;4.93;;;3.00;;
17363;SDS011;8799;43.594;13.526;2024-02-16T07:21:15;6.97;;;2.90;;
17363;SDS011;8799;43.594;13.526;2024-02-16T07:23:45;4.80;;;2.73;;
17363;SDS011;8799;43.594;13.526;2024-02-16T07:26:13;5.73;;;3.20;;
17363;SDS011;8799;43.594;13.526;2024-02-16T07:28:42;5.47;;;2.60;;
17363;SDS011;8799;43.594;13.526;2024-02-16T07:31:10;5.77;;;3.20;;
17363;SDS011;8799;43.594;13.526;2024-02-16T07:33:41;6.20;;;3.23;;
17363;SDS011;8799;43.594;13.526;2024-02-16T07:36:08;7.40;;;3.30;;
17363;SDS011;8799;43.594;13.526;2024-02-16T07:38:36;4.43;;;2.43;;
17363;SDS011;8799;43.594;13.526;2024-02-16T07:41:04;5.43;;;2.77;;
17363;SDS011;8799;43.594;13.526;2024-02-16T07:43:32;6.47;;;3.00;;
17363;SDS011;8799;43.594;13.526;2024-02-16T07:46:00;12.30;;;4.67;;
17363;SDS011;8799;43.594;13.526;2024-02-16T07:48:28;14.83;;;6.03;;
17363;SDS011;8799;43.594;13.526;2024-02-16T07:50:58;17.43;;;6.43;;
17363;SDS011;8799;43.594;13.526;2024-02-16T07:53:27;18.77;;;8.10;;
17363;SDS011;8799;43.594;13.526;2024-02-16T07:55:55;21.40;;;8.43;;
17363;SDS011;8799;43.594;13.526;2024-02-16T07:58:23;19.17;;;7.73;;
17363;SDS011;8799;43.594;13.526;2024-02-16T08:00:51;19.27;;;7.73;;
17363;SDS011;8799;43.594;13.526;2024-02-16T08:03:21;18.17;;;8.47;;
17363;SDS011;8799;43.594;13.526;2024-02-16T08:05:49;19.90;;;7.63;;
17363;SDS011;8799;43.594;13.526;2024-02-16T08:08:18;19.80;;;9.20;;
17363;SDS011;8799;43.594;13.526;2024-02-16T08:10:46;18.40;;;8.00;;
17363;SDS011;8799;43.594;13.526;2024-02-16T08:13:14;18.87;;;8.40;;
17363;SDS011;8799;43.594;13.526;2024-02-16T08:15:42;20.37;;;7.90;;
17363;SDS011;8799;43.594;13.526;2024-02-16T08:18:09;21.63;;;8.13;;
17363;SDS011;8799;43.594;13.526;2024-02-16T08:20:38;18.50;;;7.17;;
17363;SDS011;8799;43.594;13.526;2024-02-16T08:23:06;14.50;;;7.00;;
17363;SDS011;8799;43.594;13.526;2024-02-16T08:25:34;15.63;;;7.07;;
17363;SDS011;8799;43.594;13.526;2024-02-16T08:28:03;15.63;;;6.33;;
17363;SDS011;8799;43.594;13.526;2024-02-16T08:30:31;16.10;;;6.83;;
17363;SDS011;8799;43.594;13.526;2024-02-16T08:32:59;17.40;;;6.70;;
17363;SDS011;8799;43.594;13.526;2024-02-16T08:35:27;15.77;;;6.50;;
17363;SDS011;8799;43.594;13.526;2024-02-16T08:37:54;14.43;;;5.90;;
17363;SDS011;8799;43.594;13.526;2024-02-16T08:40:22;13.10;;;5.87;;
17363;SDS011;8799;43.594;13.526;2024-02-16T08:42:52;14.70;;;5.87;;
17363;SDS011;8799;43.594;13.526;2024-02-16T08:45:20;12.40;;;6.70;;
17363;SDS011;8799;43.594;13.526;2024-02-16T08:47:48;18.20;;;6.03;;
17363;SDS011;8799;43.594;13.526;2024-02-16T08:50:16;11.83;;;5.27;;
17363;SDS011;8799;43.594;13.526;2024-02-16T08:52:44;12.97;;;5.33;;
17363;SDS011;8799;43.594;13.526;2024-02-16T08:55:11;13.33;;;5.50;;
17363;SDS011;8799;43.594;13.526;2024-02-16T08:57:39;11.37;;;5.00;;
17363;SDS011;8799;43.594;13.526;2024-02-16T09:00:10;14.63;;;5.40;;
17363;SDS011;8799;43.594;13.526;2024-02-16T09:02:38;9.80;;;4.80;;
17363;SDS011;8799;43.594;13.526;2024-02-16T09:05:10;8.90;;;5.10;;
17363;SDS011;8799;43.594;13.526;2024-02-16T09:07:37;9.43;;;4.70;;
17363;SDS011;8799;43.594;13.526;2024-02-16T09:10:06;12.13;;;5.27;;
17363;SDS011;8799;43.594;13.526;2024-02-16T09:12:34;9.13;;;4.53;;
17363;SDS011;8799;43.594;13.526;2024-02-16T09:15:02;9.93;;;4.80;;
17363;SDS011;8799;43.594;13.526;2024-02-16T09:17:32;13.00;;;4.43;;
17363;SDS011;8799;43.594;13.526;2024-02-16T09:20:01;12.53;;;5.13;;
17363;SDS011;8799;43.594;13.526;2024-02-16T09:22:29;11.03;;;4.37;;
17363;SDS011;8799;43.594;13.526;2024-02-16T09:24:57;12.33;;;4.77;;
17363;SDS011;8799;43.594;13.526;2024-02-16T09:27:27;10.57;;;4.80;;
17363;SDS011;8799;43.594;13.526;2024-02-16T09:29:54;10.73;;;5.13;;
17363;SDS011;8799;43.594;13.526;2024-02-16T09:32:22;10.07;;;4.80;;
17363;SDS011;8799;43.594;13.526;2024-02-16T09:34:51;9.20;;;4.87;;
17363;SDS011;8799;43.594;13.526;2024-02-16T09:37:19;8.63;;;4.70;;
17363;SDS011;8799;43.594;13.526;2024-02-16T09:39:47;8.50;;;4.40;;
17363;SDS011;8799;43.594;13.526;2024-02-16T09:42:15;9.83;;;5.57;;
17363;SDS011;8799;43.594;13.526;2024-02-16T09:44:42;9.60;;;4.63;;
17363;SDS011;8799;43.594;13.526;2024-02-16T09:47:11;10.23;;;3.83;;
17363;SDS011;8799;43.594;13.526;2024-02-16T09:49:42;9.73;;;4.30;;
17363;SDS011;8799;43.594;13.526;2024-02-16T09:52:14;14.47;;;4.70;;
17363;SDS011;8799;43.594;13.526;2024-02-16T09:54:42;10.20;;;4.60;;
17363;SDS011;8799;43.594;13.526;2024-02-16T09:57:09;10.40;;;4.97;;
17363;SDS011;8799;43.594;13.526;2024-02-16T09:59:37;9.97;;;5.90;;
17363;SDS011;8799;43.594;13.526;2024-02-16T10:02:05;11.77;;;5.00;;
17363;SDS011;8799;43.594;13.526;2024-02-16T10:04:33;9.90;;;4.27;;
17363;SDS011;8799;43.594;13.526;2024-02-16T10:07:00;9.10;;;4.30;;
17363;SDS011;8799;43.594;13.526;2024-02-16T10:09:30;12.00;;;5.30;;
17363;SDS011;8799;43.594;13.526;2024-02-16T10:11:58;10.43;;;4.60;;
17363;SDS011;8799;43.594;13.526;2024-02-16T10:14:26;9.90;;;4.23;;
17363;SDS011;8799;43.594;13.526;2024-02-16T10:17:00;8.80;;;4.43;;
17363;SDS011;8799;43.594;13.526;2024-02-16T10:19:28;13.37;;;4.03;;
17363;SDS011;8799;43.594;13.526;2024-02-16T10:22:07;12.60;;;5.17;;
17363;SDS011;8799;43.594;13.526;2024-02-16T10:24:37;10.70;;;4.37;;
17363;SDS011;8799;43.594;13.526;2024-02-16T10:27:04;8.90;;;4.47;;
17363;SDS011;8799;43.594;13.526;2024-02-16T10:29:33;9.07;;;4.10;;
17363;SDS011;8799;43.594;13.526;2024-02-16T10:32:02;9.73;;;4.50;;
17363;SDS011;8799;43.594;13.526;2024-02-16T10:34:29;11.83;;;5.27;;
17363;SDS011;8799;43.594;13.526;2024-02-16T10:36:59;9.47;;;4.17;;
17363;SDS011;8799;43.594;13.526;2024-02-16T10:39:27;9.77;;;4.50;;
17363;SDS011;8799;43.594;13.526;2024-02-16T10:41:57;9.60;;;4.17;;
17363;SDS011;8799;43.594;13.526;2024-02-16T10:44:26;8.00;;;4.20;;
17363;SDS011;8799;43.594;13.526;2024-02-16T10:46:55;10.70;;;4.10;;
17363;SDS011;8799;43.594;13.526;2024-02-16T10:49:23;6.77;;;3.70;;
17363;SDS011;8799;43.594;13.526;2024-02-16T10:51:52;9.77;;;4.90;;
17363;SDS011;8799;43.594;13.526;2024-02-16T10:54:21;9.33;;;4.47;;
17363;SDS011;8799;43.594;13.526;2024-02-16T10:56:52;11.23;;;4.40;;
17363;SDS011;8799;43.594;13.526;2024-02-16T10:59:23;10.67;;;4.23;;
17363;SDS011;8799;43.594;13.526;2024-02-16T11:01:59;11.50;;;4.83;;
17363;SDS011;8799;43.594;13.526;2024-02-16T11:04:35;8.07;;;4.13;;
17363;SDS011;8799;43.594;13.526;2024-02-16T11:07:10;11.17;;;4.90;;
17363;SDS011;8799;43.594;13.526;2024-02-16T11:09:38;10.43;;;4.33;;
17363;SDS011;8799;43.594;13.526;2024-02-16T11:12:07;8.00;;;3.57;;
17363;SDS011;8799;43.594;13.526;2024-02-16T11:14:39;12.27;;;4.37;;
17363;SDS011;8799;43.594;13.526;2024-02-16T11:17:07;13.60;;;4.40;;
17363;SDS011;8799;43.594;13.526;2024-02-16T11:19:36;7.87;;;4.00;;
17363;SDS011;8799;43.594;13.526;2024-02-16T11:22:04;8.23;;;4.27;;
17363;SDS011;8799;43.594;13.526;2024-02-16T11:24:34;8.47;;;4.10;;
17363;SDS011;8799;43.594;13.526;2024-02-16T11:27:04;9.20;;;4.07;;
17363;SDS011;8799;43.594;13.526;2024-02-16T11:29:34;8.87;;;4.37;;
17363;SDS011;8799;43.594;13.526;2024-02-16T11:32:04;8.27;;;4.27;;
17363;SDS011;8799;43.594;13.526;2024-02-16T11:34:32;9.50;;;4.27;;
17363;SDS011;8799;43.594;13.526;2024-02-16T11:37:00;12.07;;;4.60;;
17363;SDS011;8799;43.594;13.526;2024-02-16T11:39:28;7.33;;;3.80;;
17363;SDS011;8799;43.594;13.526;2024-02-16T11:41:59;9.60;;;4.03;;
17363;SDS011;8799;43.594;13.526;2024-02-16T11:44:28;9.13;;;3.80;;
17363;SDS011;8799;43.594;13.526;2024-02-16T11:46:56;9.50;;;4.13;;
17363;SDS011;8799;43.594;13.526;2024-02-16T11:49:26;9.60;;;4.33;;
17363;SDS011;8799;43.594;13.526;2024-02-16T11:51:54;8.60;;;4.30;;
17363;SDS011;8799;43.594;13.526;2024-02-16T11:54:22;9.07;;;3.60;;
17363;SDS011;8799;43.594;13.526;2024-02-16T11:56:50;9.03;;;4.10;;
17363;SDS011;8799;43.594;13.526;2024-02-16T11:59:19;9.87;;;3.93;;
17363;SDS011;8799;43.594;13.526;2024-02-16T12:01:50;8.23;;;4.13;;
17363;SDS011;8799;43.594;13.526;2024-02-16T12:04:19;9.63;;;4.40;;
17363;SDS011;8799;43.594;13.526;2024-02-16T12:06:49;7.93;;;4.07;;
17363;SDS011;8799;43.594;13.526;2024-02-16T12:09:17;11.90;;;4.80;;
17363;SDS011;8799;43.594;13.526;2024-02-16T12:11:47;7.07;;;3.80;;
17363;SDS011;8799;43.594;13.526;2024-02-16T12:14:16;9.23;;;4.03;;
17363;SDS011;8799;43.594;13.526;2024-02-16T12:16:46;8.87;;;4.07;;
17363;SDS011;8799;43.594;13.526;2024-02-16T12:19:15;7.40;;;4.00;;
17363;SDS011;8799;43.594;13.526;2024-02-16T12:21:43;11.03;;;3.80;;
17363;SDS011;8799;43.594;13.526;2024-02-16T12:24:13;8.83;;;4.03;;
17363;SDS011;8799;43.594;13.526;2024-02-16T12:26:41;7.27;;;3.90;;
17363;SDS011;8799;43.594;13.526;2024-02-16T12:29:09;7.37;;;4.03;;
17363;SDS011;8799;43.594;13.526;2024-02-16T12:31:38;10.47;;;4.10;;
17363;SDS011;8799;43.594;13.526;2024-02-16T12:34:06;7.17;;;3.80;;
17363;SDS011;8799;43.594;13.526;2024-02-16T12:36:34;6.27;;;3.43;;
17363;SDS011;8799;43.594;13.526;2024-02-16T12:39:02;8.33;;;3.40;;
17363;SDS011;8799;43.594;13.526;2024-02-16T12:41:32;8.27;;;4.23;;
17363;SDS011;8799;43.594;13.526;2024-02-16T12:44:00;7.03;;;3.83;;
17363;SDS011;8799;43.594;13.526;2024-02-16T12:46:28;8.27;;;3.53;;
17363;SDS011;8799;43.594;13.526;2024-02-16T12:48:57;7.53;;;4.13;;
17363;SDS011;8799;43.594;13.526;2024-02-16T12:51:25;7.37;;;3.53;;
17363;SDS011;8799;43.594;13.526;2024-02-16T12:53:53;6.60;;;3.73;;
17363;SDS011;8799;43.594;13.526;2024-02-16T12:56:21;7.87;;;4.03;;
17363;SDS011;8799;43.594;13.526;2024-02-16T12:58:50;9.20;;;3.93;;
17363;SDS011;8799;43.594;13.526;2024-02-16T13:01:19;9.97;;;4.40;;
17363;SDS011;8799;43.594;13.526;2024-02-16T13:03:47;9.63;;;4.87;;
17363;SDS011;8799;43.594;13.526;2024-02-16T13:06:15;8.47;;;4.23;;
17363;SDS011;8799;43.594;13.526;2024-02-16T13:08:43;9.53;;;4.50;;
17363;SDS011;8799;43.594;13.526;2024-02-16T13:11:10;11.03;;;4.90;;
17363;SDS011;8799;43.594;13.526;2024-02-16T13:13:39;11.07;;;5.00;;
17363;SDS011;8799;43.594;13.526;2024-02-16T13:16:08;11.20;;;5.10;;
17363;SDS011;8799;43.594;13.526;2024-02-16T13:18:39;11.83;;;5.20;;
17363;SDS011;8799;43.594;13.526;2024-02-16T13:21:07;12.77;;;5.93;;
17363;SDS011;8799;43.594;13.526;2024-02-16T13:23:35;15.33;;;6.57;;
17363;SDS011;8799;43.594;13.526;2024-02-16T13:26:02;12.80;;;6.43;;
17363;SDS011;8799;43.594;13.526;2024-02-16T13:28:31;19.40;;;5.53;;
17363;SDS011;8799;43.594;13.526;2024-02-16T13:30:58;15.90;;;5.63;;
17363;SDS011;8799;43.594;13.526;2024-02-16T13:33:28;15.67;;;5.57;;
17363;SDS011;8799;43.594;13.526;2024-02-16T13:35:56;13.67;;;5.67;;
17363;SDS011;8799;43.594;13.526;2024-02-16T13:38:23;14.90;;;5.90;;
17363;SDS011;8799;43.594;13.526;2024-02-16T13:40:51;13.20;;;6.30;;
17363;SDS011;8799;43.594;13.526;2024-02-16T13:43:19;12.17;;;5.13;;
17363;SDS011;8799;43.594;13.526;2024-02-16T13:45:48;17.83;;;6.27;;
17363;SDS011;8799;43.594;13.526;2024-02-16T13:48:17;14.13;;;6.77;;
17363;SDS011;8799;43.594;13.526;2024-02-16T13:50:47;13.23;;;6.33;;
17363;SDS011;8799;43.594;13.526;2024-02-16T13:53:15;19.13;;;6.70;;
17363;SDS011;8799;43.594;13.526;2024-02-16T13:55:43;14.97;;;5.67;;
17363;SDS011;8799;43.594;13.526;2024-02-16T13:58:11;17.63;;;7.17;;
17363;SDS011;8799;43.594;13.526;2024-02-16T14:00:39;17.77;;;7.13;;
17363;SDS011;8799;43.594;13.526;2024-02-16T14:03:08;16.83;;;7.07;;
17363;SDS011;8799;43.594;13.526;2024-02-16T14:05:37;14.50;;;7.40;;
17363;SDS011;8799;43.594;13.526;2024-02-16T14:08:07;13.73;;;6.70;;
17363;SDS011;8799;43.594;13.526;2024-02-16T14:10:36;15.17;;;6.73;;
17363;SDS011;8799;43.594;13.526;2024-02-16T14:13:04;14.87;;;7.67;;
17363;SDS011;8799;43.594;13.526;2024-02-16T14:15:32;15.63;;;7.50;;
17363;SDS011;8799;43.594;13.526;2024-02-16T14:18:00;16.10;;;7.13;;
17363;SDS011;8799;43.594;13.526;2024-02-16T14:20:27;15.13;;;7.67;;
17363;SDS011;8799;43.594;13.526;2024-02-16T14:22:55;18.43;;;8.23;;
17363;SDS011;8799;43.594;13.526;2024-02-16T14:25:25;20.57;;;7.97;;
17363;SDS011;8799;43.594;13.526;2024-02-16T14:27:52;24.43;;;8.07;;
17363;SDS011;8799;43.594;13.526;2024-02-16T14:30:20;19.97;;;7.70;;
17363;SDS011;8799;43.594;13.526;2024-02-16T14:32:48;15.73;;;8.27;;
17363;SDS011;8799;43.594;13.526;2024-02-16T14:35:16;29.53;;;8.23;;
17363;SDS011;8799;43.594;13.526;2024-02-16T14:37:44;14.97;;;6.90;;
17363;SDS011;8799;43.594;13.526;2024-02-16T14:40:12;18.70;;;7.90;;
17363;SDS011;8799;43.594;13.526;2024-02-16T14:42:42;15.53;;;7.13;;
17363;SDS011;8799;43.594;13.526;2024-02-16T14:45:10;16.87;;;7.50;;
17363;SDS011;8799;43.594;13.526;2024-02-16T14:47:44;18.17;;;6.63;;
17363;SDS011;8799;43.594;13.526;2024-02-16T14:50:13;15.90;;;7.50;;